Time;durP1;ratioP1;P1;durP2;ratioP2;P2;SDS_P1;SDS_P2;PMS_P1;PMS_P2;Temp;Humidity;BMP_temperature;BMP_pressure;BME280_temperature;BME280_humidity;BME280_pressure;Samples;Min_cycle;Max_cycle;Signal;HPM_P1;HPM_P2
2021/07/10 00:02:25;;;;;;;;;9.25;8.00;;;;;22.61;48.75;101183.31;5074484;28;45767;-82
2021/07/10 00:04:51;;;;;;;;;12.25;11.25;;;;;22.54;48.42;101166.28;5074868;28;45738;-83
2021/07/10 00:07:16;;;;;;;;;11.00;9.50;;;;;22.42;48.50;101149.81;5074843;28;45552;-83
2021/07/10 00:09:42;;;;;;;;;11.00;10.25;;;;;22.57;48.44;101179.28;5074817;28;45694;-83
2021/07/10 00:12:07;;;;;;;;;9.25;9.25;;;;;22.52;48.72;101184.31;5074647;28;45695;-81
2021/07/10 00:14:33;;;;;;;;;9.00;9.00;;;;;22.46;48.66;101185.00;5073617;28;45566;-79
2021/07/10 00:16:58;;;;;;;;;11.25;9.50;;;;;22.42;48.91;101181.00;5074721;28;45497;-81
2021/07/10 00:19:24;;;;;;;;;10.00;9.75;;;;;22.39;48.89;101184.88;5074284;28;46491;-81
2021/07/10 00:21:50;;;;;;;;;9.75;8.75;;;;;22.31;48.77;101168.88;5074232;28;45700;-81
2021/07/10 00:24:15;;;;;;;;;11.00;10.75;;;;;22.17;48.90;101154.41;5074498;28;45595;-81
2021/07/10 00:26:41;;;;;;;;;9.75;9.00;;;;;22.20;49.06;101150.53;5074245;28;45893;-80
2021/07/10 00:32:27;;;;;;;;;11.00;9.25;;;;;22.24;49.18;101153.72;5073979;28;45857;-81
2021/07/10 00:34:53;;;;;;;;;11.75;11.50;;;;;22.25;49.43;101150.03;5074097;28;45593;-82
2021/07/10 00:37:18;;;;;;;;;10.25;8.75;;;;;21.98;49.20;101108.56;5074300;28;45760;-81
2021/07/10 00:39:43;;;;;;;;;8.50;8.25;;;;;22.11;49.05;101124.88;5073829;28;45827;-81
2021/07/10 00:42:09;;;;;;;;;10.00;8.50;;;;;22.14;49.66;101135.19;5055287;28;47013;-81
2021/07/10 00:44:34;;;;;;;;;10.75;10.00;;;;;22.08;49.78;101117.19;5073956;28;45454;-81
2021/07/10 00:47:00;;;;;;;;;10.75;9.00;;;;;22.18;49.33;101141.88;4986576;28;1869445;-82
2021/07/10 00:49:28;;;;;;;;;8.75;8.75;;;;;22.16;49.52;101144.72;5054622;28;46638;-82
2021/07/10 00:51:55;;;;;;;;;9.00;8.25;;;;;22.10;49.74;101133.88;5070203;28;45925;-82
2021/07/10 00:54:21;;;;;;;;;8.00;8.00;;;;;22.00;49.83;101119.91;5054008;28;45759;-81
2021/07/10 00:56:47;;;;;;;;;8.50;8.50;;;;;22.14;49.51;101129.88;5055235;28;45801;-81
2021/07/10 01:02:34;;;;;;;;;9.75;8.00;;;;;22.01;49.58;101101.06;5054552;28;45696;-80
2021/07/10 01:05:04;;;;;;;;;10.00;8.75;;;;;22.12;49.46;101121.22;5054904;28;45633;-81
2021/07/10 01:07:29;;;;;;;;;10.50;8.00;;;;;22.11;49.73;101117.72;5055842;28;45474;-80
2021/07/10 01:09:55;;;;;;;;;9.25;9.00;;;;;22.08;49.83;101103.84;5057139;28;46685;-82
2021/07/10 01:12:20;;;;;;;;;8.25;7.75;;;;;22.04;49.81;101097.19;5056871;28;45742;-82
2021/07/10 01:14:47;;;;;;;;;8.50;8.50;;;;;22.14;49.55;101108.50;5054980;28;45615;-81
2021/07/10 01:17:12;;;;;;;;;10.25;8.50;;;;;21.97;49.65;101074.88;5054755;28;45529;-82
2021/07/10 01:19:37;;;;;;;;;8.75;8.00;;;;;22.14;49.66;101097.84;5054672;28;45606;-82
2021/07/10 01:22:08;;;;;;;;;7.50;7.50;;;;;22.11;49.98;101090.19;5054921;28;45675;-82
2021/07/10 01:24:33;;;;;;;;;6.75;6.50;;;;;22.14;49.78;101087.16;5055232;28;45597;-82
2021/07/10 01:26:58;;;;;;;;;6.00;6.00;;;;;22.14;49.69;101081.81;5054824;28;45589;-80
2021/07/10 01:32:47;;;;;;;;;6.25;5.75;;;;;22.12;49.97;101075.84;5054695;28;45972;-81
2021/07/10 01:35:13;;;;;;;;;6.75;6.75;;;;;22.06;49.97;101063.19;5055494;28;45565;-79
2021/07/10 01:37:42;;;;;;;;;8.25;6.50;;;;;22.11;49.59;101061.66;5055205;28;45674;-80
2021/07/10 01:40:08;;;;;;;;;10.00;9.25;;;;;22.11;49.52;101064.31;5055834;28;46317;-81
2021/07/10 01:42:34;;;;;;;;;8.25;8.00;;;;;22.11;50.03;101061.66;5056518;28;46858;-81
2021/07/10 01:45:00;;;;;;;;;7.00;6.75;;;;;22.11;49.58;101052.81;5060516;28;45654;-81
2021/07/10 01:47:25;;;;;;;;;8.00;8.00;;;;;22.10;50.14;101053.81;5071957;28;45683;-81
2021/07/10 01:49:51;;;;;;;;;8.25;8.25;;;;;22.11;49.83;101055.47;5076851;28;46220;-81
2021/07/10 01:52:17;;;;;;;;;8.50;8.50;;;;;21.88;50.00;101007.31;5078194;28;45659;-81
2021/07/10 01:54:42;;;;;;;;;6.50;6.00;;;;;22.06;49.78;101039.16;5078146;28;45716;-80
2021/07/10 01:57:09;;;;;;;;;8.00;7.50;;;;;22.00;49.68;101026.50;5076450;28;46015;-80
2021/07/10 02:02:57;;;;;;;;;10.25;8.25;;;;;22.02;49.66;101027.16;5074603;28;45711;-81
2021/07/10 02:05:26;;;;;;;;;9.75;8.00;;;;;22.02;50.13;101029.84;5074492;28;45568;-80
2021/07/10 02:07:52;;;;;;;;;8.75;7.75;;;;;22.00;49.99;101034.50;5074317;28;45524;-81
2021/07/10 02:10:20;;;;;;;;;9.50;8.75;;;;;21.99;50.16;101028.34;5073616;28;46365;-81
2021/07/10 02:12:48;;;;;;;;;8.75;8.25;;;;;21.90;50.23;101012.50;5074400;28;45908;-80
2021/07/10 02:15:14;;;;;;;;;7.00;7.00;;;;;21.99;49.98;101027.50;5074128;28;45567;-80
2021/07/10 02:17:44;;;;;;;;;9.25;8.25;;;;;21.98;50.12;101023.16;5074000;28;45793;-80
2021/07/10 02:20:13;;;;;;;;;8.00;8.00;;;;;21.85;50.23;101005.00;5074019;28;45630;-82
2021/07/10 02:22:41;;;;;;;;;8.75;8.75;;;;;21.87;50.23;101013.66;5071510;28;45549;-80
2021/07/10 02:25:08;;;;;;;;;6.50;6.00;;;;;21.93;50.18;101023.66;5074202;28;45689;-79
2021/07/10 02:27:34;;;;;;;;;8.00;8.00;;;;;21.92;50.60;101016.66;5074053;28;45616;-82
2021/07/10 02:33:21;;;;;;;;;7.75;7.00;;;;;21.89;50.42;101019.66;5073555;28;45732;-80
2021/07/10 02:35:47;;;;;;;;;8.25;6.75;;;;;21.83;50.47;101004.34;5055563;28;45710;-82
2021/07/10 02:38:13;;;;;;;;;9.00;8.75;;;;;21.88;50.46;101003.81;5057320;28;45599;-80
2021/07/10 02:40:39;;;;;;;;;10.00;8.00;;;;;21.88;50.44;101006.50;5077193;28;45692;-82
2021/07/10 02:43:05;;;;;;;;;8.00;7.00;;;;;21.78;50.43;100986.19;5077619;28;45679;-81
2021/07/10 02:45:31;;;;;;;;;9.00;7.75;;;;;21.67;50.43;100978.56;5077484;28;45694;-80
2021/07/10 02:47:57;;;;;;;;;6.00;6.00;;;;;21.81;50.40;101006.34;5058567;28;46103;-81
2021/07/10 02:50:25;;;;;;;;;6.50;6.00;;;;;21.78;50.90;100998.69;5076938;28;46363;-82
2021/07/10 02:52:53;;;;;;;;;10.50;8.75;;;;;21.82;50.68;100994.66;5075701;28;46160;-80
2021/07/10 02:55:19;;;;;;;;;8.25;8.25;;;;;21.81;50.97;100995.66;5077223;28;45637;-80
2021/07/10 02:57:45;;;;;;;;;8.00;7.00;;;;;21.80;50.70;100993.19;5077177;28;45865;-80
2021/07/10 03:03:31;;;;;;;;;9.00;9.00;;;;;21.75;50.40;100988.38;5076972;28;46024;-79
2021/07/10 03:05:57;;;;;;;;;8.50;6.75;;;;;21.63;50.88;100960.41;5077141;28;45524;-80
2021/07/10 03:08:22;;;;;;;;;8.00;8.00;;;;;21.64;50.73;100973.59;5077004;28;45639;-81
2021/07/10 03:10:48;;;;;;;;;7.75;7.75;;;;;21.66;51.04;100973.38;5077124;28;46602;-80
2021/07/10 03:13:15;;;;;;;;;9.75;8.00;;;;;21.68;50.77;100980.22;5077632;28;46088;-81
2021/07/10 03:15:41;;;;;;;;;8.75;8.00;;;;;21.67;51.15;100975.06;5077849;28;45600;-81
2021/07/10 03:18:06;;;;;;;;;11.00;9.00;;;;;21.58;51.25;100966.25;5077132;28;45902;-81
2021/07/10 03:20:33;;;;;;;;;9.50;7.50;;;;;21.50;51.28;100942.28;5058343;28;47622;-81
2021/07/10 03:22:59;;;;;;;;;8.00;8.00;;;;;21.26;51.21;100907.72;5076753;28;46072;-81
2021/07/10 03:25:24;;;;;;;;;10.25;9.50;;;;;21.48;51.41;100948.81;5058089;28;45881;-81
2021/07/10 03:27:51;;;;;;;;;9.50;9.00;;;;;21.59;51.46;100967.91;5076705;28;45643;-81
2021/07/10 03:33:44;;;;;;;;;9.50;8.00;;;;;21.46;51.26;100954.28;5076448;28;45695;-81
2021/07/10 03:36:12;;;;;;;;;7.25;7.25;;;;;21.41;51.74;100943.31;5076947;28;45672;-81
2021/07/10 03:38:39;;;;;;;;;7.25;7.25;;;;;21.40;51.32;100946.97;5076882;28;45741;-81
2021/07/10 03:41:05;;;;;;;;;8.25;8.25;;;;;21.50;51.86;100962.78;5076629;28;46594;-81
2021/07/10 03:43:31;;;;;;;;;10.50;8.75;;;;;21.48;51.48;100960.31;5076984;28;46056;-80
2021/07/10 03:45:58;;;;;;;;;11.50;10.00;;;;;21.35;51.98;100942.16;5079051;28;45616;-82
2021/07/10 03:48:24;;;;;;;;;9.25;9.00;;;;;21.49;51.47;100959.28;5081869;28;45700;-81
2021/07/10 03:50:49;;;;;;;;;11.00;9.00;;;;;21.49;51.52;100971.78;5081970;28;45640;-81
2021/07/10 03:53:15;;;;;;;;;12.50;10.00;;;;;21.48;52.15;100967.47;5082719;28;46086;-82
2021/07/10 03:55:40;;;;;;;;;10.00;8.25;;;;;21.48;51.73;100967.47;5082336;28;45552;-81
2021/07/10 03:58:06;;;;;;;;;10.50;10.00;;;;;21.35;51.79;100944.81;5078162;28;45677;-81
2021/07/10 04:03:53;;;;;;;;;10.50;9.00;;;;;21.40;52.30;100960.31;5076078;28;45771;-82
2021/07/10 04:06:19;;;;;;;;;8.75;8.00;;;;;21.42;52.21;100960.97;5076218;28;45572;-79
2021/07/10 04:08:44;;;;;;;;;9.50;9.00;;;;;21.41;52.27;100963.81;5076330;28;45649;-81
2021/07/10 04:11:10;;;;;;;;;9.00;8.75;;;;;21.39;52.18;100968.47;5075916;28;46534;-81
2021/07/10 04:13:36;;;;;;;;;8.00;8.00;;;;;21.35;52.17;100963.50;5075620;28;47214;-79
2021/07/10 04:16:03;;;;;;;;;11.50;10.25;;;;;21.32;52.11;100968.34;5075919;28;45593;-80
2021/07/10 04:18:29;;;;;;;;;8.50;8.00;;;;;21.28;52.30;100973.16;5076121;28;45807;-81
2021/07/10 04:20:56;;;;;;;;;8.75;7.75;;;;;21.25;52.42;100960.19;5057436;28;46008;-81
2021/07/10 04:23:23;;;;;;;;;9.50;9.50;;;;;21.23;52.45;100974.66;5075689;28;46220;-81
2021/07/10 04:25:49;;;;;;;;;10.00;9.00;;;;;21.20;52.65;100961.69;5075173;28;45753;-81
2021/07/10 04:28:15;;;;;;;;;11.25;10.25;;;;;21.20;52.73;100964.34;5075772;28;45596;-80
2021/07/10 04:34:02;;;;;;;;;11.25;10.00;;;;;21.10;52.78;100943.19;5075360;28;45894;-81
2021/07/10 04:36:28;;;;;;;;;10.75;9.75;;;;;20.87;52.97;100913.75;5075354;28;45639;-81
2021/07/10 04:38:53;;;;;;;;;10.25;10.00;;;;;21.10;53.07;100953.84;5075483;28;45770;-81
2021/07/10 04:41:18;;;;;;;;;9.50;8.75;;;;;21.08;53.08;100955.00;5057232;28;46440;-81
2021/07/10 04:43:44;;;;;;;;;10.00;9.00;;;;;21.08;52.95;100953.16;5075622;28;45698;-81
2021/07/10 04:46:11;;;;;;;;;9.25;9.00;;;;;21.10;53.37;100958.34;5074054;28;46011;-81
2021/07/10 04:48:36;;;;;;;;;8.75;8.25;;;;;21.04;53.55;100949.19;5057618;28;45647;-82
2021/07/10 04:51:03;;;;;;;;;8.50;8.50;;;;;21.02;53.16;100948.50;5075009;28;46601;-80
2021/07/10 04:53:28;;;;;;;;;9.00;8.00;;;;;21.01;53.52;100944.19;5075118;28;46581;-81
2021/07/10 04:55:54;;;;;;;;;9.00;8.00;;;;;20.95;53.44;100942.19;5075328;28;45595;-81
2021/07/10 04:58:19;;;;;;;;;7.00;6.25;;;;;21.08;53.27;100966.50;5075481;28;45526;-79
2021/07/10 05:04:08;;;;;;;;;7.25;7.25;;;;;21.08;53.52;100963.00;5075071;28;45763;-80
2021/07/10 05:06:34;;;;;;;;;7.75;7.00;;;;;20.99;53.36;100951.53;5075501;28;45756;-81
2021/07/10 05:09:00;;;;;;;;;8.00;8.00;;;;;21.08;53.76;100971.81;5074963;28;45658;-80
2021/07/10 05:11:25;;;;;;;;;7.50;7.00;;;;;20.95;53.48;100956.34;5074716;28;45816;-82
2021/07/10 05:13:51;;;;;;;;;9.75;8.75;;;;;20.81;53.89;100932.22;5075099;28;46193;-81
2021/07/10 05:16:16;;;;;;;;;9.00;8.75;;;;;21.07;53.78;100971.97;5075001;28;45877;-81
2021/07/10 05:18:41;;;;;;;;;7.25;7.00;;;;;21.06;53.81;100963.16;5075047;28;45736;-82
2021/07/10 05:21:07;;;;;;;;;7.00;7.00;;;;;21.08;53.68;100969.16;5076069;28;45498;-82
2021/07/10 05:23:34;;;;;;;;;6.25;6.25;;;;;21.07;53.76;100972.81;5058348;28;46675;-81
2021/07/10 05:26:00;;;;;;;;;7.00;7.00;;;;;21.07;53.94;100969.31;5057295;28;45736;-81
2021/07/10 05:28:28;;;;;;;;;7.50;7.00;;;;;21.06;54.34;100975.66;5074818;28;45567;-81
2021/07/10 05:34:14;;;;;;;;;8.50;7.50;;;;;20.84;54.46;100953.19;5074558;28;45775;-82
2021/07/10 05:36:40;;;;;;;;;9.50;9.25;;;;;20.83;54.50;100963.03;5074716;28;45596;-81
2021/07/10 05:39:05;;;;;;;;;9.25;9.25;;;;;20.88;54.66;100967.84;5074830;28;45578;-81
2021/07/10 05:41:31;;;;;;;;;10.00;9.00;;;;;20.83;54.67;100962.19;5074552;28;45618;-82
2021/07/10 05:43:58;;;;;;;;;9.00;8.25;;;;;20.74;54.58;100945.34;5074672;28;45690;-82
2021/07/10 05:46:23;;;;;;;;;8.25;8.00;;;;;20.75;55.22;100955.03;5074663;28;45927;-79
2021/07/10 05:48:49;;;;;;;;;7.75;7.25;;;;;20.79;54.92;100959.00;5077778;28;45545;-80
2021/07/10 05:51:14;;;;;;;;;9.00;8.25;;;;;20.73;54.96;100945.53;5081155;28;45442;-80
2021/07/10 05:53:40;;;;;;;;;8.00;7.00;;;;;20.75;55.10;100946.19;5080030;28;45452;-80
2021/07/10 05:56:05;;;;;;;;;8.75;8.50;;;;;20.58;55.13;100917.88;5061396;28;45744;-80
2021/07/10 05:58:31;;;;;;;;;10.00;8.00;;;;;20.51;55.04;100913.22;5081422;28;45632;-79
2021/07/10 06:04:18;;;;;;;;;7.50;7.50;;;;;20.71;55.29;100943.03;5074417;28;46108;-82
2021/07/10 06:06:45;;;;;;;;;8.00;8.00;;;;;20.68;55.23;100946.03;5074659;28;45593;-82
2021/07/10 06:09:10;;;;;;;;;11.25;9.25;;;;;20.64;55.23;100936.72;5074584;28;45652;-82
2021/07/10 06:11:36;;;;;;;;;8.50;8.25;;;;;20.66;55.36;100941.88;5074349;28;45561;-81
2021/07/10 06:14:07;;;;;;;;;9.50;9.00;;;;;20.71;55.27;100942.22;5077493;28;45576;-81
2021/07/10 06:19:54;;;;;;;;;8.50;8.50;;;;;20.71;55.47;100932.38;5077970;28;45577;-80
2021/07/10 06:22:20;;;;;;;;;15.25;14.75;;;;;20.72;55.15;100936.72;5077993;28;45836;-83
2021/07/10 06:24:46;;;;;;;;;9.25;8.75;;;;;20.62;55.19;100925.38;5078167;28;45644;-81
2021/07/10 06:27:12;;;;;;;;;6.75;6.75;;;;;20.69;55.23;100934.38;5078138;28;45655;-79
2021/07/10 06:29:38;;;;;;;;;7.50;7.50;;;;;20.73;55.08;100942.88;5077677;28;45634;-79
2021/07/10 06:32:07;;;;;;;;;8.00;7.75;;;;;20.70;55.23;100937.88;5077493;28;45591;-81
2021/07/10 06:34:33;;;;;;;;;8.50;8.00;;;;;20.55;55.04;100921.75;5077400;28;45435;-82
2021/07/10 06:36:58;;;;;;;;;8.50;7.50;;;;;20.46;55.06;100904.91;5077291;28;45759;-80
2021/07/10 06:39:24;;;;;;;;;6.75;6.50;;;;;20.40;55.09;100902.94;5077619;28;45593;-80
2021/07/10 06:41:49;;;;;;;;;7.75;7.00;;;;;20.60;55.21;100940.72;5077318;28;45487;-81
2021/07/10 06:44:14;;;;;;;;;6.00;6.00;;;;;20.60;55.00;100926.56;5077695;28;46172;-80
2021/07/10 06:50:18;;;;;;;;;11.25;9.00;;;;;20.58;55.00;100923.22;5068043;28;45723;-80
2021/07/10 06:52:46;;;;;;;;;5.00;5.00;;;;;20.61;55.07;100923.75;5077332;28;46798;-81
2021/07/10 06:55:14;;;;;;;;;6.00;6.00;;;;;20.54;54.93;100906.75;5058907;28;47269;-83
2021/07/10 06:57:40;;;;;;;;;7.00;6.00;;;;;20.47;54.79;100903.09;5076494;28;45749;-81
2021/07/10 07:00:10;;;;;;;;;5.00;4.00;;;;;20.60;54.97;100924.72;5041970;28;45591;-81
2021/07/10 07:02:35;;;;;;;;;6.00;6.00;;;;;20.60;54.85;100919.41;5078541;28;46796;-85
2021/07/10 07:05:01;;;;;;;;;8.00;7.00;;;;;20.48;54.70;100897.59;5062734;28;46436;-84
2021/07/10 07:07:26;;;;;;;;;8.25;7.50;;;;;20.65;54.80;100922.41;5080654;28;45493;-76
2021/07/10 07:09:52;;;;;;;;;6.75;6.25;;;;;20.70;54.71;100922.72;5063545;28;45872;-81
2021/07/10 07:12:17;;;;;;;;;5.00;4.50;;;;;20.72;54.84;100914.59;5081430;28;46121;-88
2021/07/10 07:14:42;;;;;;;;;5.00;5.00;;;;;20.68;54.62;100897.25;5079709;28;45652;-79
2021/07/10 07:17:08;;;;;;;;;8.25;8.00;;;;;20.75;54.67;100909.75;5076397;28;46052;-79
2021/07/10 07:19:34;;;;;;;;;5.25;5.25;;;;;20.78;54.76;100911.25;5077281;28;45512;-75
2021/07/10 07:21:59;;;;;;;;;6.00;6.00;;;;;20.87;54.73;100908.41;5076694;28;46308;-77
2021/07/10 07:24:25;;;;;;;;;7.25;6.50;;;;;20.90;54.94;100899.22;5057764;28;46049;-77
2021/07/10 07:26:51;;;;;;;;;8.00;7.75;;;;;20.93;54.88;100894.41;5076606;28;45802;-76
2021/07/10 07:29:17;;;;;;;;;5.00;5.00;;;;;20.91;54.37;100887.59;5076234;28;45634;-78
2021/07/10 07:35:06;;;;;;;;;5.75;5.25;;;;;21.07;54.52;100892.88;5075897;28;46003;-75
2021/07/10 07:37:31;;;;;;;;;5.00;5.00;;;;;21.09;54.67;100884.72;5075589;28;45702;-76
2021/07/10 07:39:57;;;;;;;;;6.50;6.00;;;;;21.15;54.36;100895.56;5076125;28;45553;-76
2021/07/10 07:42:22;;;;;;;;;6.75;6.00;;;;;21.21;54.27;100899.41;5076026;28;46404;-77
2021/07/10 07:44:48;;;;;;;;;6.50;6.50;;;;;21.19;54.50;100888.91;5076183;28;45794;-78
2021/07/10 07:50:35;;;;;;;;;4.50;4.25;;;;;21.26;54.07;100891.72;5070226;28;45615;-77
2021/07/10 07:53:01;;;;;;;;;5.75;5.00;;;;;21.27;53.80;100893.34;5076101;28;47042;-77
2021/07/10 07:55:26;;;;;;;;;5.50;5.25;;;;;21.34;54.15;100897.00;5076193;28;45682;-77
2021/07/10 07:57:52;;;;;;;;;5.50;4.75;;;;;21.32;53.90;100899.03;5077348;28;46072;-79
2021/07/10 08:00:22;;;;;;;;;5.75;5.50;;;;;21.34;53.89;100895.19;5078978;28;45759;-77
2021/07/10 08:02:48;;;;;;;;;6.50;5.50;;;;;21.34;53.70;100889.84;5079697;28;46589;-82
2021/07/10 08:05:14;;;;;;;;;5.75;5.25;;;;;21.24;53.79;100873.22;5078056;28;45907;-77
2021/07/10 08:07:40;;;;;;;;;4.25;3.50;;;;;21.33;53.49;100890.00;5077608;28;45610;-78
2021/07/10 08:10:07;;;;;;;;;8.75;8.75;;;;;21.26;53.49;100865.91;5077561;28;45800;-79
2021/07/10 08:12:33;;;;;;;;;9.00;7.00;;;;;21.46;53.79;100892.97;5076676;28;45575;-79
2021/07/10 08:14:58;;;;;;;;;7.25;7.25;;;;;21.47;53.53;100883.97;5076235;28;46278;-79
2021/07/10 08:20:45;;;;;;;;;6.00;6.00;;;;;21.60;53.05;100894.06;5075996;28;45651;-80
2021/07/10 08:23:11;;;;;;;;;6.00;5.50;;;;;21.59;53.26;100881.75;5075622;28;45737;-79
2021/07/10 08:25:36;;;;;;;;;5.25;5.00;;;;;21.62;53.15;100884.06;5075742;28;46419;-80
2021/07/10 08:28:02;;;;;;;;;3.75;3.00;;;;;21.69;52.86;100885.88;5075703;28;45625;-78
2021/07/10 08:30:28;;;;;;;;;5.00;5.00;;;;;21.71;53.19;100885.69;5075477;28;45798;-81
2021/07/10 08:32:53;;;;;;;;;5.50;5.00;;;;;21.71;52.77;100880.34;5075802;28;45521;-81
2021/07/10 08:35:20;;;;;;;;;5.00;4.00;;;;;21.74;52.73;100875.50;5074748;28;45692;-77
2021/07/10 08:37:47;;;;;;;;;2.25;2.25;;;;;21.76;52.66;100872.66;5075686;28;45691;-78
2021/07/10 08:40:15;;;;;;;;;5.00;4.00;;;;;21.83;52.22;100878.13;5075596;28;45545;-78
2021/07/10 08:42:40;;;;;;;;;2.25;2.25;;;;;21.78;52.17;100865.31;5075519;28;45497;-76
2021/07/10 08:45:09;;;;;;;;;4.00;3.25;;;;;21.90;52.04;100877.25;5075580;28;45778;-79
2021/07/10 08:51:01;;;;;;;;;4.75;3.00;;;;;21.84;51.69;100875.28;5071893;28;45786;-79
2021/07/10 08:53:27;;;;;;;;;2.50;2.00;;;;;21.82;51.23;100879.97;5056736;28;47848;-77
2021/07/10 08:55:53;;;;;;;;;3.75;3.75;;;;;21.76;51.23;100869.97;5075416;28;46449;-81
2021/07/10 08:58:19;;;;;;;;;3.25;2.50;;;;;21.90;51.42;100901.28;5075536;28;45865;-78
2021/07/10 09:00:46;;;;;;;;;3.00;3.00;;;;;21.91;51.66;100900.28;5075117;28;45608;-80
2021/07/10 09:03:12;;;;;;;;;4.50;3.25;;;;;21.94;51.51;100896.41;5075520;28;45603;-78
2021/07/10 09:05:37;;;;;;;;;4.25;3.50;;;;;21.89;51.46;100890.78;5075710;28;46078;-80
2021/07/10 09:08:23;;;;;;;;;2.50;2.50;;;;;21.97;51.42;100899.56;5075445;28;45604;-78
2021/07/10 09:10:59;;;;;;;;;4.25;3.00;;;;;22.00;50.93;100907.25;5075172;28;45694;-78
2021/07/10 09:13:42;;;;;;;;;1.75;1.00;;;;;21.97;50.90;100912.13;5075232;28;45785;-81
2021/07/10 09:16:13;;;;;;;;;3.00;3.00;;;;;21.92;50.56;100909.06;5074078;28;46124;-79
2021/07/10 09:18:44;;;;;;;;;3.00;3.00;;;;;21.79;51.10;100901.66;5074017;28;45540;-81
2021/07/10 09:21:13;;;;;;;;;8.00;7.75;;;;;21.83;50.91;100910.13;5074674;28;45612;-82
2021/07/10 09:23:41;;;;;;;;;5.00;4.00;;;;;21.82;51.26;100908.47;5074508;28;46331;-77
2021/07/10 09:26:14;;;;;;;;;4.75;4.00;;;;;21.79;51.51;100904.31;5056364;28;47693;-80
2021/07/10 09:28:41;;;;;;;;;3.00;3.00;;;;;21.80;51.27;100898.00;5074942;28;45663;-81
2021/07/10 09:31:38;;;;;;;;;5.00;5.00;;;;;21.77;51.48;100898.31;5074475;28;45790;-80
2021/07/10 09:34:12;;;;;;;;;3.00;3.00;;;;;21.77;51.46;100890.31;5011903;28;45908;-80
2021/07/10 09:36:53;;;;;;;;;4.75;4.50;;;;;21.72;51.37;100888.19;5012472;28;46516;-82
2021/07/10 09:39:19;;;;;;;;;3.00;2.75;;;;;21.69;51.67;100874.38;5012645;28;45598;-81
2021/07/10 09:41:46;;;;;;;;;5.25;4.50;;;;;21.72;51.72;100874.84;5012798;28;45615;-80
2021/07/10 09:44:14;;;;;;;;;3.00;3.00;;;;;21.77;51.61;100885.00;5012455;28;46465;-80
2021/07/10 09:46:40;;;;;;;;;3.75;3.50;;;;;21.76;52.00;100869.97;5013206;28;45587;-80
2021/07/10 09:49:30;;;;;;;;;5.00;3.50;;;;;21.78;51.92;100860.81;5015987;28;45728;-81
2021/07/10 09:52:03;;;;;;;;;5.75;4.00;;;;;21.77;51.64;100860.97;5016064;28;45731;-81
2021/07/10 09:54:35;;;;;;;;;3.00;3.00;;;;;21.71;51.96;100853.69;5015644;28;46503;-80
2021/07/10 09:57:05;;;;;;;;;3.00;2.00;;;;;21.78;52.03;100876.81;5015518;28;46271;-80
2021/07/10 09:59:34;;;;;;;;;2.25;2.25;;;;;21.71;51.76;100861.69;5015890;28;45646;-81
2021/07/10 10:02:00;;;;;;;;;3.00;3.00;;;;;21.83;51.56;100880.78;5016131;28;45609;-80
2021/07/10 10:04:30;;;;;;;;;1.00;1.00;;;;;21.74;51.76;100861.34;5016043;28;46386;-80
2021/07/10 10:07:00;;;;;;;;;3.00;2.00;;;;;21.81;51.63;100867.63;5015808;28;45948;-80
2021/07/10 10:09:30;;;;;;;;;2.25;2.25;;;;;21.83;51.69;100852.28;5021415;28;45567;-81
2021/07/10 10:11:57;;;;;;;;;2.75;1.00;;;;;21.82;51.86;100850.63;5079637;28;45776;-79
2021/07/10 10:14:23;;;;;;;;;2.00;2.00;;;;;21.72;51.40;100848.19;5085168;28;45986;-81
2021/07/10 10:16:49;;;;;;;;;1.50;1.50;;;;;21.71;51.68;100856.34;5085509;28;45663;-80
2021/07/10 10:19:18;;;;;;;;;3.00;3.00;;;;;21.73;51.52;100868.50;5085227;28;45459;-80
2021/07/10 10:21:45;;;;;;;;;2.25;2.25;;;;;21.76;51.62;100861.97;5084963;28;45802;-79
2021/07/10 10:24:11;;;;;;;;;1.00;1.00;;;;;21.78;51.70;100860.81;5084133;28;45609;-81
2021/07/10 10:26:37;;;;;;;;;2.00;2.00;;;;;21.74;51.65;100862.19;5079457;28;46210;-81
2021/07/10 10:29:05;;;;;;;;;4.00;2.75;;;;;21.61;51.85;100837.91;5077767;28;45655;-81
2021/07/10 10:31:30;;;;;;;;;4.25;3.50;;;;;21.77;51.83;100853.81;5078037;28;45669;-81
2021/07/10 10:33:56;;;;;;;;;4.00;3.00;;;;;21.84;51.84;100859.28;5077925;28;45631;-83
2021/07/10 10:36:25;;;;;;;;;2.00;2.00;;;;;21.83;51.59;100856.78;5076227;28;48431;-79
2021/07/10 10:38:52;;;;;;;;;3.00;3.00;;;;;21.90;51.58;100853.25;5077530;28;45730;-77
2021/07/10 10:41:19;;;;;;;;;3.00;2.25;;;;;21.93;51.90;100854.72;5077737;28;45576;-76
2021/07/10 10:43:48;;;;;;;;;2.00;2.00;;;;;21.97;52.14;100856.88;5077355;28;45593;-77
2021/07/10 10:46:23;;;;;;;;;3.00;3.00;;;;;22.00;52.06;100847.72;5077300;28;46464;-76
2021/07/10 10:52:22;;;;;;;;;3.00;3.00;;;;;22.08;51.81;100858.31;5067409;28;45809;-83
2021/07/10 10:54:50;;;;;;;;;2.00;1.25;;;;;22.10;51.80;100851.81;5076947;28;46434;-82
2021/07/10 10:57:16;;;;;;;;;3.00;2.25;;;;;22.08;52.08;100845.81;5077861;28;45900;-82
2021/07/10 10:59:43;;;;;;;;;4.00;3.00;;;;;22.11;51.92;100853.47;5077402;28;45579;-81
2021/07/10 11:02:32;;;;;;;;;1.50;1.50;;;;;22.08;51.70;100850.31;5078013;28;45781;-80
2021/07/10 11:04:58;;;;;;;;;3.50;2.75;;;;;22.03;51.37;100848.16;5015139;28;46439;-81
2021/07/10 11:07:25;;;;;;;;;3.00;2.75;;;;;21.94;50.85;100835.03;5014974;28;45887;-78
2021/07/10 11:10:13;;;;;;;;;2.00;2.00;;;;;21.93;50.81;100844.88;5015315;28;45796;-80
2021/07/10 11:12:48;;;;;;;;;2.00;2.00;;;;;21.90;51.04;100857.75;5016013;28;45768;-77
2021/07/10 11:15:40;;;;;;;;;1.00;1.00;;;;;21.81;50.29;100859.63;5015436;28;46628;-80
2021/07/10 11:18:07;;;;;;;;;1.50;1.50;;;;;21.70;50.35;100844.03;5005384;28;46096;-83
2021/07/10 11:20:46;;;;;;;;;2.00;2.00;;;;;21.64;50.62;100837.56;5014951;28;45735;-79
2021/07/10 11:23:26;;;;;;;;;3.00;3.00;;;;;21.62;50.61;100850.22;5015727;28;45773;-81
2021/07/10 11:25:55;;;;;;;;;1.25;1.00;;;;;21.58;50.62;100853.44;5016259;28;47298;-82
2021/07/10 11:28:30;;;;;;;;;1.75;1.75;;;;;21.45;50.81;100831.81;5017342;28;46344;-82
2021/07/10 11:30:59;;;;;;;;;2.50;2.00;;;;;21.48;50.92;100850.16;5017551;28;45631;-82
2021/07/10 11:34:02;;;;;;;;;2.00;2.00;;;;;21.42;50.67;100849.00;5019934;28;45634;-80
2021/07/10 11:36:45;;;;;;;;;3.00;2.00;;;;;21.42;51.11;100853.50;5020613;28;47331;-78
2021/07/10 11:39:32;;;;;;;;;3.00;2.00;;;;;21.42;51.04;100859.66;5007561;28;48471;-77
2021/07/10 11:42:00;;;;;;;;;3.00;3.00;;;;;21.41;51.15;100852.66;5046186;28;45452;-79
2021/07/10 11:44:29;;;;;;;;;2.50;2.50;;;;;21.40;51.22;100847.50;5081201;28;45620;-81
2021/07/10 11:46:55;;;;;;;;;3.00;3.00;;;;;21.39;51.35;100838.66;5083352;28;45601;-81
2021/07/10 11:49:43;;;;;;;;;3.75;3.00;;;;;21.38;51.77;100844.19;5083157;28;45679;-80
2021/07/10 11:52:17;;;;;;;;;5.00;3.25;;;;;21.42;51.35;100835.66;5022370;28;45546;-79
2021/07/10 11:54:53;;;;;;;;;4.25;3.00;;;;;21.44;51.65;100844.31;5020855;28;45573;-79
2021/07/10 11:57:20;;;;;;;;;4.00;4.00;;;;;21.36;51.99;100823.03;5013937;28;46578;-78
2021/07/10 11:59:45;;;;;;;;;3.50;3.50;;;;;21.18;52.08;100787.78;5013689;28;46195;-77
2021/07/10 12:05:36;;;;;;;;;3.00;3.00;;;;;21.57;52.19;100833.94;5013972;28;45685;-82
2021/07/10 12:08:04;;;;;;;;;3.25;3.00;;;;;21.65;52.04;100841.88;5013365;28;46667;-80
2021/07/10 12:10:37;;;;;;;;;2.75;2.25;;;;;21.71;52.01;100843.84;5012056;28;46271;-82
2021/07/10 12:13:22;;;;;;;;;3.75;3.75;;;;;21.78;52.12;100854.66;5013910;28;45741;-81
2021/07/10 12:15:53;;;;;;;;;3.50;3.50;;;;;21.74;52.29;100824.84;5014105;28;45624;-82
2021/07/10 12:21:40;;;;;;;;;4.00;3.00;;;;;21.88;52.11;100836.56;5014300;28;45855;-79
2021/07/10 12:24:05;;;;;;;;;3.50;3.50;;;;;21.91;52.13;100832.75;5013803;28;45851;-80
2021/07/10 12:26:31;;;;;;;;;4.00;4.00;;;;;21.88;52.19;100833.91;5015040;28;45668;-77
2021/07/10 12:28:57;;;;;;;;;3.25;3.00;;;;;21.93;52.24;100830.69;5047425;28;45795;-77
2021/07/10 12:31:33;;;;;;;;;4.50;4.00;;;;;21.95;51.73;100832.22;5084518;28;45880;-79
2021/07/10 12:37:24;;;;;;;;;3.00;3.00;;;;;22.01;52.07;100828.03;5079364;28;45615;-77
2021/07/10 12:39:49;;;;;;;;;3.00;3.00;;;;;22.03;52.40;100828.66;5060750;28;49042;-78
2021/07/10 12:42:15;;;;;;;;;3.25;3.25;;;;;21.99;52.13;100809.50;5059762;28;48517;-78